Latest Weather Observations for Mount Read

IDT60801

Issued at 8:02 pm EST Friday 26 August 2016 (issued every 30 minutes, with the page automatically refreshed every 10 minutes)

About weather observations | Map of weather stations | Latest weather observations for TAS | Other Formats
Station Details ID: 097085 Name: MOUNT READ Lat: -41.84 Lon: 145.54 Height: 1119.5 m
Data from the previous 72 hours. | See also: Recent months at Mount Read
Date/Time
EST
Temp
°C
App
Temp
°C
Dew
Point
°C
Rel
Hum
%
Delta-T
°C
Wind Press
QNH
hPa
Press
MSL
hPa
Rain since
9am
mm
Dir  Spd
km/h
Gust
km/h
Spd
kts
Gust
kts
26/08:00pm 1.5 -6.9 1.5 100 0.0 WNW 35 44 19 24 1014.1 1016.3 14.4
26/07:30pm 1.4 -7.8 1.4 100 0.0 WNW 39 54 21 29 1013.7 1015.8 14.2
26/07:00pm 1.6 -6.2 1.6 100 0.0 NW 32 43 17 23 1013.7 1015.8 14.0
26/06:30pm 1.4 -7.8 1.4 100 0.0 WNW 39 50 21 27 1013.4 1015.6 13.6
26/06:00pm 1.6 -5.5 1.6 100 0.0 NW 28 41 15 22 1013.4 1015.6 13.4
26/05:30pm 1.5 -4.4 1.5 100 0.0 NW 22 35 12 19 1013.1 1015.3 12.4
26/05:00pm 1.3 -7.1 1.3 100 0.0 WNW 35 48 19 26 1012.8 1014.9 11.4
26/04:30pm 1.4 -5.7 1.4 100 0.0 WNW 28 46 15 25 1013.0 1015.1 10.6
26/04:29pm 1.4 -5.7 1.4 100 0.0 WNW 28 46 15 25 1013.0 1015.1 10.6
26/04:00pm 1.1 -6.4 1.1 100 0.0 WNW 30 43 16 23 1012.9 1015.0 10.6
26/03:30pm 1.2 -6.9 1.2 100 0.0 WNW 33 48 18 26 1012.9 1015.0 10.6
26/03:14pm 1.3 -5.8 1.3 100 0.0 WNW 28 46 15 25 1012.8 1014.9 10.2
26/03:00pm 1.4 -5.7 1.4 100 0.0 WNW 28 41 15 22 1012.9 1015.0 10.0
26/02:30pm 1.6 -5.1 1.6 100 0.0 WNW 26 41 14 22 1013.0 1015.1 9.8
26/02:00pm 1.3 -6.2 1.3 100 0.0 WNW 30 39 16 21 1012.9 1015.0 9.8
26/01:30pm 1.5 -4.1 1.5 100 0.0 WNW 20 35 11 19 1013.0 1015.1 9.4
26/01:00pm 1.3 -5.0 1.3 100 0.0 WNW 24 44 13 24 1013.2 1015.4 9.4
26/12:30pm 1.4 -6.4 1.4 100 0.0 WNW 32 46 17 25 1013.4 1015.6 9.2
26/12:00pm 0.9 -5.9 0.9 100 0.0 WNW 26 44 14 24 1013.5 1015.7 9.2
26/11:30am 0.9 -5.9 0.9 100 0.0 WNW 26 37 14 20 1013.8 1016.0 8.2
26/11:00am 0.7 -7.8 0.7 100 0.0 W 35 44 19 24 1013.5 1015.7 6.0
26/10:30am 0.6 -6.6 0.6 100 0.0 W 28 41 15 22 1013.8 1016.0 3.8
26/10:00am 0.4 -6.8 0.4 100 0.0 W 28 35 15 19 1013.9 1016.1 0.8
26/09:30am 0.1 -5.1 0.1 100 0.0 WNW 17 26 9 14 1013.9 1016.1 0.0
26/09:00am 0.0 -5.2 0.0 100 0.0 SW 17 22 9 12 1013.7 1015.8 17.6
26/08:30am -0.1 -4.9 -0.1 100 0.0 SW 15 20 8 11 1013.4 1015.6 17.6
26/08:00am -0.3 -2.3 -0.3 100 0.0 CALM 0 0 0 0 1013.2 1015.4 17.6
26/07:30am -0.4 -2.4 -0.4 100 0.0 CALM 0 0 0 0 1013.2 1015.4 17.6
26/07:00am -0.6 -2.7 -0.6 100 0.0 CALM 0 0 0 0 1013.0 1015.1 17.6
26/06:30am -0.6 -2.7 -0.6 100 0.0 CALM 0 0 0 0 1012.5 1014.7 17.6
26/06:00am -0.6 -2.7 -0.6 100 0.0 CALM 0 0 0 0 1012.3 1014.5 17.6
26/05:30am -0.5 -2.6 -0.5 100 0.0 CALM 0 0 0 0 1012.2 1014.3 17.6
26/05:00am -0.4 -2.4 -0.4 100 0.0 CALM 0 0 0 0 1012.5 1014.7 17.6
26/04:30am -0.5 -2.6 -0.5 100 0.0 CALM 0 0 0 0 1012.2 1014.3 17.6
26/04:00am -0.3 -6.5 -0.3 100 0.0 SW 22 32 12 17 1012.2 1014.3 17.6
26/03:30am -0.2 -7.2 -0.2 100 0.0 SW 26 33 14 18 1011.9 1014.0 17.6
26/03:00am -0.2 -7.5 -0.2 100 0.0 SW 28 35 15 19 1012.0 1014.1 17.6
26/02:30am -0.4 -8.1 -0.4 100 0.0 SW 30 37 16 20 1012.1 1014.2 17.6
26/02:00am -0.4 -6.6 -0.4 100 0.0 SW 22 30 12 16 1012.3 1014.5 17.6
26/01:30am -0.7 -6.0 -0.7 100 0.0 SW 17 20 9 11 1012.7 1014.8 17.6
26/01:00am -0.8 -6.1 -0.8 100 0.0 SW 17 20 9 11 1012.8 1014.9 17.6
26/12:30am -0.8 -7.5 -0.8 100 0.0 SW 24 30 13 16 1012.5 1014.7 17.6
26/12:00am -1.1 -7.0 -1.1 100 0.0 SW 20 26 11 14 1012.7 1014.8 17.6
 
Date/Time
EST
Temp
°C
App
Temp
°C
Dew
Point
°C
Rel
Hum
%
Delta-T
°C
Wind Press
QNH
hPa
Press
MSL
hPa
Rain since
9am
mm
Dir  Spd
km/h
Gust
km/h
Spd
kts
Gust
kts
25/11:30pm -1.2 -7.9 -1.2 100 0.0 SW 24 30 13 16 1012.4 1014.6 17.6
25/11:00pm -1.6 -8.4 -1.6 100 0.0 SW 24 30 13 16 1012.5 1014.7 17.6
25/10:30pm -1.5 -8.3 -1.5 100 0.0 SW 24 30 13 16 1012.7 1014.8 17.6
25/10:00pm -1.4 -8.5 -1.4 100 0.0 SW 26 32 14 17 1012.7 1014.8 17.6
25/09:30pm -0.9 -7.6 -0.9 100 0.0 SW 24 30 13 16 1012.9 1015.0 17.6
25/09:00pm -0.8 -6.7 -0.8 100 0.0 SW 20 30 11 16 1012.9 1015.0 17.6
25/08:30pm -0.8 -7.1 -0.8 100 0.0 SW 22 26 12 14 1013.0 1015.1 17.6
25/08:00pm -0.5 -7.9 -0.5 100 0.0 SW 28 37 15 20 1012.5 1014.7 17.6
25/07:30pm -0.3 -6.5 -0.3 100 0.0 SW 22 28 12 15 1012.5 1014.7 17.6
25/07:00pm -0.2 -6.8 -0.2 100 0.0 SW 24 33 13 18 1012.2 1014.3 17.6
25/06:30pm -0.2 -7.9 -0.2 100 0.0 SW 30 35 16 19 1011.9 1014.0 17.6
25/06:00pm -0.1 -7.8 -0.1 100 0.0 SSW 30 37 16 20 1011.5 1013.7 17.6
25/05:30pm 0.0 -6.9 0.0 100 0.0 SSW 26 35 14 19 1011.3 1013.4 17.6
25/05:00pm 0.0 -7.3 0.0 100 0.0 SSW 28 37 15 20 1011.2 1013.3 17.6
25/04:30pm 0.0 -8.3 0.0 100 0.0 SSW 33 44 18 24 1011.1 1013.2 17.4
25/04:00pm 0.1 -8.5 0.1 100 0.0 SSW 35 46 19 25 1010.6 1012.7 17.0
25/03:30pm 0.3 -9.4 0.3 100 0.0 SSW 41 52 22 28 1010.4 1012.5 16.8
25/03:00pm 0.4 -8.2 0.4 100 0.0 SSW 35 46 19 25 1010.4 1012.5 16.4
25/02:30pm 0.5 -8.1 0.5 100 0.0 SSW 35 43 19 23 1010.2 1012.3 15.4
25/02:00pm 0.0 -6.9 0.0 100 0.0 SSW 26 33 14 18 1010.3 1012.4 13.8
25/01:30pm 0.5 -5.6 0.5 100 0.0 SSW 22 32 12 17 1010.3 1012.4 12.4
25/01:00pm 0.5 -6.0 0.5 100 0.0 SSW 24 30 13 16 1010.4 1012.5 10.4
25/12:30pm 0.3 -5.8 0.3 100 0.0 SSW 22 30 12 16 1010.5 1012.6 8.6
25/12:00pm 0.2 -5.9 0.2 100 0.0 S 22 32 12 17 1010.5 1012.6 6.2
25/11:30am 0.1 -6.0 0.1 100 0.0 SSW 22 30 12 16 1010.4 1012.5 4.8
25/11:00am 0.0 -6.5 0.0 100 0.0 SSW 24 33 13 18 1010.4 1012.5 3.2
25/10:30am 0.0 -5.6 0.0 100 0.0 S 19 35 10 19 1010.1 1012.2 2.0
25/10:00am 0.0 -2.0 0.0 100 0.0 CALM 0 0 0 0 1009.9 1011.9 1.4
25/09:30am -0.1 -2.1 -0.1 100 0.0 CALM 0 0 0 0 1009.6 1011.7 0.8
25/09:00am -0.1 -2.1 -0.1 100 0.0 CALM 0 0 0 0 1009.5 1011.6 17.0
25/08:30am -0.3 -2.3 -0.3 100 0.0 CALM 0 0 0 0 1009.2 1011.2 16.6
25/08:00am -0.4 -2.4 -0.4 100 0.0 CALM 0 0 0 0 1009.0 1011.0 16.6
25/07:30am -0.6 -2.7 -0.6 100 0.0 CALM 0 0 0 0 1008.6 1010.7 16.6
25/07:00am -0.9 -3.0 -0.9 100 0.0 CALM 0 0 0 0 1008.5 1010.6 16.6
25/06:30am -0.9 -3.0 -0.9 100 0.0 CALM 0 0 0 0 1008.3 1010.3 16.6
25/06:00am -0.6 -2.7 -0.6 100 0.0 CALM 0 0 0 0 1008.0 1010.0 16.6
25/05:30am -0.9 -3.0 -0.9 100 0.0 CALM 0 0 0 0 1007.9 1009.9 16.6
25/05:00am -1.1 -3.2 -1.1 100 0.0 CALM 0 0 0 0 1007.5 1009.5 16.6
25/04:30am -1.0 -3.1 -1.0 100 0.0 CALM 0 0 0 0 1007.5 1009.5 16.6
25/04:00am -1.1 -3.2 -1.1 100 0.0 CALM 0 0 0 0 1007.4 1009.4 16.6
25/03:30am -1.4 -3.6 -1.4 100 0.0 CALM 0 0 0 0 1007.2 1009.2 16.6
25/03:00am -1.2 -3.4 -1.2 100 0.0 CALM 0 0 0 0 1007.1 1009.1 16.6
25/02:30am -1.2 -3.4 -1.2 100 0.0 CALM 0 0 0 0 1007.2 1009.2 16.6
25/02:00am -1.1 -3.2 -1.1 100 0.0 CALM 0 0 0 0 1007.5 1009.5 16.6
25/01:30am -1.1 -3.2 -1.1 100 0.0 CALM 0 0 0 0 1007.5 1009.5 16.6
25/01:00am -1.2 -3.4 -1.2 100 0.0 CALM 0 0 0 0 1007.5 1009.5 16.6
25/12:30am -1.4 -3.6 -1.4 100 0.0 CALM 0 0 0 0 1007.5 1009.5 16.6
25/12:00am -1.4 -3.6 -1.4 100 0.0 CALM 0 0 0 0 1007.4 1009.4 16.6
 
Date/Time
EST
Temp
°C
App
Temp
°C
Dew
Point
°C
Rel
Hum
%
Delta-T
°C
Wind Press
QNH
hPa
Press
MSL
hPa
Rain since
9am
mm
Dir  Spd
km/h
Gust
km/h
Spd
kts
Gust
kts
24/11:30pm -1.0 -3.1 -1.0 100 0.0 CALM 0 0 0 0 1007.5 1009.5 16.6
24/11:00pm -1.0 -3.1 -1.0 100 0.0 CALM 0 0 0 0 1007.7 1009.8 16.6
24/10:30pm -0.8 -2.9 -0.8 100 0.0 CALM 0 0 0 0 1008.1 1010.1 16.6
24/10:00pm -1.0 -3.1 -1.0 100 0.0 CALM 0 0 0 0 1008.2 1010.2 16.6
24/09:30pm -0.8 -2.9 -0.8 100 0.0 CALM 0 0 0 0 1008.3 1010.3 16.6
24/09:00pm -1.0 -3.1 -1.0 100 0.0 CALM 0 0 0 0 1008.4 1010.4 16.6
24/08:30pm -1.1 -3.2 -1.1 100 0.0 CALM 0 0 0 0 1008.5 1010.6 16.6
24/08:00pm -0.8 -2.9 -0.8 100 0.0 CALM 0 0 0 0 1008.9 1010.9 16.6
24/07:30pm -0.3 -2.3 -0.3 100 0.0 CALM 0 0 0 0 1009.1 1011.1 16.6
24/07:00pm -0.3 -4.8 -0.3 100 0.0 WSW 13 17 7 9 1008.9 1010.9 16.6
24/06:30pm -0.5 -6.4 -0.5 100 0.0 WSW 20 24 11 13 1008.8 1010.8 16.6
24/06:00pm -0.2 -6.8 -0.2 100 0.0 WSW 24 30 13 16 1008.8 1010.8 16.4
24/05:30pm -0.2 -6.4 -0.2 100 0.0 WSW 22 28 12 15 1008.8 1010.8 16.4
24/05:00pm 0.0 -6.5 0.0 100 0.0 WSW 24 28 13 15 1008.9 1010.9 16.4
24/04:30pm -0.1 -6.7 -0.1 100 0.0 SW 24 30 13 16 1008.9 1010.9 16.2
24/04:00pm 0.0 -6.2 0.0 100 0.0 SW 22 32 12 17 1008.9 1010.9 15.6
24/03:30pm 0.3 -5.8 0.3 100 0.0 SW 22 30 12 16 1009.1 1011.1 14.8
24/03:00pm 0.4 -5.1 0.4 100 0.0 SSW 19 28 10 15 1009.2 1011.2 13.6
24/02:30pm 0.1 -7.2 0.1 100 0.0 SW 28 37 15 20 1009.1 1011.1 12.8
24/02:00pm 0.2 -5.9 0.2 100 0.0 SSW 22 28 12 15 1009.5 1011.6 12.0
24/01:30pm 0.3 -5.2 0.3 100 0.0 SW 19 28 10 15 1009.8 1011.8 10.8
24/01:00pm 0.4 -5.1 0.4 100 0.0 SSW 19 26 10 14 1010.0 1012.1 8.6
24/12:30pm 0.3 -4.5 0.3 100 0.0 SW 15 32 8 17 1010.3 1012.4 6.6
24/12:00pm 0.1 -4.7 0.1 100 0.0 SW 15 17 8 9 1010.6 1012.7 5.0
24/11:30am 0.0 -4.5 0.0 100 0.0 SW 13 17 7 9 1011.1 1013.2 3.8
24/11:00am 0.0 -4.5 0.0 100 0.0 SW 13 17 7 9 1011.2 1013.3 3.0
24/10:30am 0.0 -2.0 0.0 100 0.0 CALM 0 0 0 0 1011.3 1013.4 1.8
24/10:00am 0.0 -2.0 0.0 100 0.0 CALM 0 0 0 0 1011.4 1013.5 1.2
24/09:30am -0.1 -2.1 -0.1 100 0.0 CALM 0 0 0 0 1011.5 1013.7 0.8
24/09:00am -0.1 -2.1 -0.1 100 0.0 CALM 0 13 0 7 1011.8 1013.9 6.8
24/08:30am -0.2 -2.2 -0.2 100 0.0 CALM 0 0 0 0 1011.8 1013.9 6.8
24/08:00am -0.3 -2.3 -0.3 100 0.0 CALM 0 0 0 0 1011.6 1013.8 6.8
24/07:30am -0.3 -2.3 -0.3 100 0.0 CALM 0 0 0 0 1011.5 1013.7 6.8
24/07:00am -0.3 -2.3 -0.3 100 0.0 CALM 0 0 0 0 1011.2 1013.3 6.8
24/06:30am -0.5 -2.6 -0.5 100 0.0 CALM 0 0 0 0 1011.1 1013.2 6.8
24/06:00am -0.4 -2.4 -0.4 100 0.0 CALM 0 0 0 0 1011.2 1013.3 6.8
24/05:30am -0.4 -2.4 -0.4 100 0.0 CALM 0 0 0 0 1011.3 1013.4 6.8
24/05:00am -0.4 -2.4 -0.4 100 0.0 CALM 0 0 0 0 1011.3 1013.4 6.8
24/04:30am -0.5 -2.6 -0.5 100 0.0 CALM 0 0 0 0 1011.2 1013.3 6.8
24/04:00am -0.4 -2.4 -0.4 100 0.0 CALM 0 0 0 0 1011.3 1013.4 6.8
24/03:30am -0.3 -5.2 -0.3 100 0.0 SW 15 20 8 11 1011.4 1013.5 6.8
24/03:00am -0.5 -7.9 -0.5 100 0.0 SW 28 33 15 18 1011.2 1013.3 6.8
24/02:30am -0.4 -6.1 -0.4 100 0.0 SW 19 26 10 14 1011.9 1014.0 6.8
24/02:00am -0.5 -6.4 -0.5 100 0.0 SW 20 26 11 14 1012.2 1014.3 6.8
24/01:30am -0.5 -6.7 -0.5 100 0.0 SW 22 28 12 15 1012.2 1014.3 6.8
24/01:00am -0.4 -6.2 -0.4 100 0.0 SW 20 26 11 14 1012.5 1014.7 6.8
24/12:30am -0.5 -6.4 -0.5 100 0.0 SW 20 28 11 15 1012.8 1014.9 6.8
24/12:00am -0.4 -6.2 -0.4 100 0.0 SW 20 28 11 15 1013.0 1015.1 6.8
 
Date/Time
EST
Temp
°C
App
Temp
°C
Dew
Point
°C
Rel
Hum
%
Delta-T
°C
Wind Press
QNH
hPa
Press
MSL
hPa
Rain since
9am
mm
Dir  Spd
km/h
Gust
km/h
Spd
kts
Gust
kts
23/11:30pm -0.4 -7.0 -0.4 100 0.0 SW 24 32 13 17 1012.9 1015.0 6.8
23/11:00pm -0.4 -7.8 -0.4 100 0.0 SW 28 35 15 19 1013.0 1015.1 6.8
23/10:30pm -0.3 -6.5 -0.3 100 0.0 SW 22 33 12 18 1013.1 1015.3 6.8
23/10:00pm -0.4 -7.0 -0.4 100 0.0 SW 24 30 13 16 1013.3 1015.5 6.8
23/09:30pm -0.3 -6.9 -0.3 100 0.0 SW 24 30 13 16 1013.3 1015.5 6.8
23/09:00pm -0.2 -7.2 -0.2 100 0.0 SW 26 30 14 16 1013.3 1015.5 6.8
23/08:30pm -0.2 -7.5 -0.2 100 0.0 SW 28 33 15 18 1013.1 1015.3 6.8

Other Formats:

Comma delimited format used in spreadsheet applications
http://www.bom.gov.au/fwo/IDT60801/IDT60801.95952.axf

JavaScript Object Notation format (JSON) in row-major order
http://www.bom.gov.au/fwo/IDT60801/IDT60801.95952.json